AU-0106 weather

Valley View
Geraldton, Western Australia, Australia

Public forecast

Using degrees Celsius for public forecast. Weather courtesy of forecast.io.

Closest aviation weather report (METAR) to Valley View

Closest report is Geraldton Airport, 12.2 nm (22.6 km) WSW. Retrieved 2019/10/22 15:30 UTC (7 minutes ago):

YGEL 221530Z AUTO 18009KT 9999 // SCT025 19/15 Q1019 RF000/0000

Closest aviation forecast (TAF) to Valley View

Forecast is more than 6 hours old.

Closest forecast is Geraldton Airport, 12.2 nm (22.6 km) WSW. Retrieved 2019/10/22 06:00 UTC (10 hours ago):

TAF YGEL 220524Z 2206/2224 20016KT CAVOK FM221100 19012KT 9999 FEW018 FM221300 19008KT 9999 BKN018